Upstream stations:
Downstream station:
SHEF ID: BFFO2 Cimarron River near Buffalo, OK
STATION TYPE:
Regulating: Stage = 6.00, Flow = 750
PRECIP STAGE RIV-FLOW BAT-LOAD
in ft cfs volt
Ccp-Rev Ccp-Rev Ccp-Rev Ccp-Rev
(US/Central)
02/04 00:00 0.00 3.27 13 12.33
02/04 01:00 0.00 3.32 16 12.33
02/04 02:00 0.00 3.26 12 12.33
02/04 03:00 0.00 3.29 14 12.33
02/04 04:00 0.00 3.43 27 12.25
02/04 05:00 0.00 3.44 28 12.25
02/04 06:00 0.00 3.11 5 12.25
02/04 07:00 0.00 3.08 4 12.25
02/04 08:00 0.00 3.27 13 12.25
02/04 09:00 0.00 3.31 16 12.33
02/04 10:00 0.00 3.23 10 12.57
02/04 11:00 0.00 3.30 15 12.97
02/04 12:00 0.00 3.21 9 13.44
02/04 13:00 0.00 3.14 6 13.76
02/04 14:00 0.10 3.13 5 13.68
02/04 15:00 0.03 3.16 7 13.60
02/04 16:00 0.02 3.20 9 13.68
02/04 17:00 0.00 3.21 9 13.76
02/04 18:00 0.00 3.26 12 13.37
02/04 19:00 0.00 3.29 14 12.97
02/04 20:00 0.00 3.37 21 12.89
02/04 21:00 0.00 3.40 23 12.89
02/04 22:00 0.00 3.53 38 12.81
02/04 23:00 0.00 3.58 45 12.81